Time;durP1;ratioP1;P1;durP2;ratioP2;P2;SDS_P1;SDS_P2;PMS_P1;PMS_P2;Temp;Humidity;BMP_temperature;BMP_pressure;BME280_temperature;BME280_humidity;BME280_pressure;Samples;Min_cycle;Max_cycle;Signal;HPM_P1;HPM_P2
2023/08/03 00:00:35;;;;;;;0.98;0.50;;;;;;;;;;5092526;28;20214;-59
2023/08/03 00:03:03;;;;;;;4.63;0.90;;;;;;;;;;5092227;28;20551;-60
2023/08/03 00:05:30;;;;;;;2.33;0.90;;;;;;;;;;5092444;28;20198;-60
2023/08/03 00:07:57;;;;;;;1.42;0.70;;;;;;;;;;5092526;28;20206;-59
2023/08/03 00:10:24;;;;;;;4.47;2.28;;;;;;;;;;5091026;28;20222;-59
2023/08/03 00:12:51;;;;;;;7.57;0.75;;;;;;;;;;5091928;28;20202;-58
2023/08/03 00:15:19;;;;;;;2.92;0.68;;;;;;;;;;5092041;28;20575;-60
2023/08/03 00:17:47;;;;;;;1.70;0.50;;;;;;;;;;5091446;28;20234;-59
2023/08/03 00:20:14;;;;;;;3.25;0.60;;;;;;;;;;5092135;28;20209;-60
2023/08/03 00:22:46;;;;;;;3.65;0.50;;;;;;;;;;5091805;28;20245;-59
2023/08/03 00:25:13;;;;;;;3.03;0.70;;;;;;;;;;5092051;28;20206;-59
2023/08/03 00:27:40;;;;;;;2.67;0.80;;;;;;;;;;5091030;28;20677;-60
2023/08/03 00:30:07;;;;;;;3.58;0.60;;;;;;;;;;5091794;28;20213;-59
2023/08/03 00:32:34;;;;;;;5.35;0.70;;;;;;;;;;5091793;28;20267;-60
2023/08/03 00:35:03;;;;;;;0.77;0.73;;;;;;;;;;5091587;28;20206;-59
2023/08/03 00:37:30;;;;;;;1.88;0.80;;;;;;;;;;5091283;28;20198;-60
2023/08/03 00:39:57;;;;;;;2.17;0.40;;;;;;;;;;5091832;28;20536;-60
2023/08/03 00:42:24;;;;;;;3.03;0.50;;;;;;;;;;5091005;28;20218;-59
2023/08/03 00:44:51;;;;;;;1.58;0.68;;;;;;;;;;5085106;28;20230;-59
2023/08/03 00:47:18;;;;;;;1.13;0.55;;;;;;;;;;5082806;28;20206;-60
2023/08/03 00:49:45;;;;;;;1.50;0.50;;;;;;;;;;5088995;28;20202;-59
2023/08/03 00:52:14;;;;;;;1.42;0.60;;;;;;;;;;5081549;28;20206;-60
2023/08/03 00:54:41;;;;;;;3.53;0.50;;;;;;;;;;5091360;28;20229;-60
2023/08/03 00:57:08;;;;;;;2.25;0.30;;;;;;;;;;5090809;28;20688;-60
2023/08/03 00:59:35;;;;;;;1.63;0.60;;;;;;;;;;5088099;28;20222;-59
2023/08/03 01:02:03;;;;;;;3.72;0.70;;;;;;;;;;5088702;28;20593;-58
2023/08/03 01:04:30;;;;;;;1.63;0.50;;;;;;;;;;5089328;28;20210;-58
2023/08/03 01:06:56;;;;;;;0.55;0.43;;;;;;;;;;5089293;28;20309;-58
2023/08/03 01:09:25;;;;;;;2.10;0.43;;;;;;;;;;5090365;28;20293;-58
2023/08/03 01:11:52;;;;;;;1.52;0.50;;;;;;;;;;5091083;28;20596;-58
2023/08/03 01:14:19;;;;;;;4.18;0.90;;;;;;;;;;5090343;28;20202;-57
2023/08/03 01:16:46;;;;;;;2.63;0.50;;;;;;;;;;5090524;28;20415;-59
2023/08/03 01:19:14;;;;;;;1.48;0.60;;;;;;;;;;5090791;28;20743;-58
2023/08/03 01:21:42;;;;;;;6.90;0.52;;;;;;;;;;5090823;28;20207;-58
2023/08/03 01:24:10;;;;;;;2.13;0.30;;;;;;;;;;5091048;28;20568;-58
2023/08/03 01:26:38;;;;;;;0.77;0.32;;;;;;;;;;5090599;28;20263;-58
2023/08/03 01:29:05;;;;;;;0.98;0.50;;;;;;;;;;5090396;28;20543;-58
2023/08/03 01:31:33;;;;;;;1.35;0.47;;;;;;;;;;5089708;28;20226;-58
2023/08/03 01:34:00;;;;;;;1.55;0.35;;;;;;;;;;5090158;28;20911;-58
2023/08/03 01:36:27;;;;;;;3.20;0.40;;;;;;;;;;5089869;28;20209;-58
2023/08/03 01:38:55;;;;;;;4.03;0.30;;;;;;;;;;5089483;28;20237;-58
2023/08/03 01:41:24;;;;;;;1.58;0.40;;;;;;;;;;5090343;28;20272;-58
2023/08/03 01:44:07;;;;;;;1.42;0.30;;;;;;;;;;5090102;28;20226;-58
2023/08/03 01:46:34;;;;;;;0.25;0.25;;;;;;;;;;5089282;28;20487;-58
2023/08/03 01:49:01;;;;;;;0.85;0.50;;;;;;;;;;5089851;28;20552;-58
2023/08/03 01:51:28;;;;;;;0.80;0.38;;;;;;;;;;5088835;28;20211;-58
2023/08/03 01:53:55;;;;;;;0.30;0.30;;;;;;;;;;5090364;28;20206;-58
2023/08/03 01:56:23;;;;;;;1.77;0.68;;;;;;;;;;5086323;28;20256;-58
2023/08/03 01:58:50;;;;;;;1.02;0.17;;;;;;;;;;5089662;28;20229;-58
2023/08/03 02:01:17;;;;;;;2.50;0.32;;;;;;;;;;5089786;28;20548;-58
2023/08/03 02:03:44;;;;;;;0.38;0.35;;;;;;;;;;5089871;28;20585;-58
2023/08/03 02:06:11;;;;;;;0.20;0.20;;;;;;;;;;5089010;28;20213;-58
2023/08/03 02:08:38;;;;;;;0.47;0.22;;;;;;;;;;5089317;28;20195;-58
2023/08/03 02:11:06;;;;;;;1.80;0.40;;;;;;;;;;5089139;28;20199;-58
2023/08/03 02:13:34;;;;;;;0.50;0.50;;;;;;;;;;5079861;28;20211;-58
2023/08/03 02:16:02;;;;;;;1.30;0.20;;;;;;;;;;5089898;28;20661;-59
2023/08/03 02:18:30;;;;;;;0.52;0.50;;;;;;;;;;5088847;28;20230;-58
2023/08/03 02:20:57;;;;;;;0.55;0.30;;;;;;;;;;5086734;28;20225;-58
2023/08/03 02:23:24;;;;;;;2.42;0.40;;;;;;;;;;5089581;28;20244;-58
2023/08/03 02:25:52;;;;;;;0.90;0.50;;;;;;;;;;5089704;28;20210;-58
2023/08/03 02:28:19;;;;;;;0.77;0.30;;;;;;;;;;5084718;28;20206;-58
2023/08/03 02:30:47;;;;;;;0.55;0.55;;;;;;;;;;5089244;28;20202;-57
2023/08/03 02:33:15;;;;;;;2.30;0.52;;;;;;;;;;5087250;28;20217;-58
2023/08/03 02:35:42;;;;;;;0.75;0.35;;;;;;;;;;5087859;28;20221;-57
2023/08/03 02:38:09;;;;;;;5.15;0.50;;;;;;;;;;5088896;28;20206;-58
2023/08/03 02:40:36;;;;;;;0.30;0.20;;;;;;;;;;5088417;28;20206;-57
2023/08/03 02:43:03;;;;;;;0.93;0.20;;;;;;;;;;5089482;28;20711;-58
2023/08/03 02:45:30;;;;;;;0.20;0.20;;;;;;;;;;5089205;28;20209;-57
2023/08/03 02:47:59;;;;;;;0.63;0.38;;;;;;;;;;5088999;28;20213;-58
2023/08/03 02:50:26;;;;;;;2.25;0.20;;;;;;;;;;5088033;28;20198;-59
2023/08/03 02:52:53;;;;;;;1.55;0.32;;;;;;;;;;5088774;28;20206;-58
2023/08/03 02:55:20;;;;;;;0.40;0.40;;;;;;;;;;5088780;28;20683;-59
2023/08/03 02:57:47;;;;;;;0.10;0.10;;;;;;;;;;5088914;28;20209;-59
2023/08/03 03:00:14;;;;;;;0.43;0.30;;;;;;;;;;5080328;28;20245;-59
2023/08/03 03:02:41;;;;;;;0.47;0.30;;;;;;;;;;5088735;28;20214;-59
2023/08/03 03:05:10;;;;;;;1.95;0.30;;;;;;;;;;5089069;28;20696;-59
2023/08/03 03:07:37;;;;;;;0.88;0.40;;;;;;;;;;5088748;28;20841;-59
2023/08/03 03:10:04;;;;;;;3.60;0.80;;;;;;;;;;5088061;28;20202;-59
2023/08/03 03:12:31;;;;;;;1.90;0.30;;;;;;;;;;5089013;28;20290;-59
2023/08/03 03:14:58;;;;;;;0.30;0.30;;;;;;;;;;5088568;28;20206;-59
2023/08/03 03:17:25;;;;;;;2.72;0.30;;;;;;;;;;5088812;28;20194;-59
2023/08/03 03:19:52;;;;;;;0.77;0.40;;;;;;;;;;5089108;28;20234;-59
2023/08/03 03:22:21;;;;;;;0.30;0.30;;;;;;;;;;5087912;28;20208;-59
2023/08/03 03:24:48;;;;;;;0.65;0.40;;;;;;;;;;5088812;28;20688;-59
2023/08/03 03:27:15;;;;;;;0.38;0.30;;;;;;;;;;5089061;28;20210;-59
2023/08/03 03:29:42;;;;;;;1.02;0.38;;;;;;;;;;5088942;28;20198;-59
2023/08/03 03:32:09;;;;;;;0.82;0.40;;;;;;;;;;5087419;28;20774;-58
2023/08/03 03:34:36;;;;;;;2.03;0.60;;;;;;;;;;5088104;28;20199;-59
2023/08/03 03:37:03;;;;;;;2.38;0.40;;;;;;;;;;5081072;28;20213;-59
2023/08/03 03:39:31;;;;;;;0.75;0.40;;;;;;;;;;5088837;28;20226;-59
2023/08/03 03:41:58;;;;;;;3.47;0.93;;;;;;;;;;5088001;28;20213;-58
2023/08/03 03:44:26;;;;;;;3.10;0.50;;;;;;;;;;5088805;28;20226;-59
2023/08/03 03:46:53;;;;;;;0.95;0.55;;;;;;;;;;5088806;28;20247;-59
2023/08/03 03:49:20;;;;;;;3.05;0.60;;;;;;;;;;5087770;28;20210;-59
2023/08/03 03:51:47;;;;;;;2.72;0.68;;;;;;;;;;5088762;28;20217;-59
2023/08/03 03:54:14;;;;;;;1.20;0.30;;;;;;;;;;5088682;28;20205;-59
2023/08/03 03:56:43;;;;;;;1.83;0.40;;;;;;;;;;5084916;28;20218;-59
2023/08/03 03:59:10;;;;;;;2.78;0.40;;;;;;;;;;5087694;28;20223;-59
2023/08/03 04:01:37;;;;;;;1.40;0.40;;;;;;;;;;5084760;28;20210;-59
2023/08/03 04:04:04;;;;;;;1.85;0.28;;;;;;;;;;5091649;28;20252;-59
2023/08/03 04:06:32;;;;;;;3.53;0.50;;;;;;;;;;5087885;28;20199;-59
2023/08/03 04:08:59;;;;;;;1.55;0.63;;;;;;;;;;5082525;28;20230;-59
2023/08/03 04:11:26;;;;;;;1.20;0.50;;;;;;;;;;5087542;28;20221;-59
2023/08/03 04:13:54;;;;;;;3.47;0.50;;;;;;;;;;5092336;28;20206;-59
2023/08/03 04:16:21;;;;;;;0.28;0.28;;;;;;;;;;5083040;28;20206;-59
2023/08/03 04:18:48;;;;;;;2.33;0.65;;;;;;;;;;5088918;28;20206;-59
2023/08/03 04:21:15;;;;;;;2.55;0.40;;;;;;;;;;5090979;28;20238;-59
2023/08/03 04:23:42;;;;;;;1.90;0.50;;;;;;;;;;5087740;28;20768;-59
2023/08/03 04:26:09;;;;;;;0.73;0.43;;;;;;;;;;5085090;28;20202;-60
2023/08/03 04:28:36;;;;;;;1.85;0.30;;;;;;;;;;5077340;28;20222;-63
2023/08/03 04:31:05;;;;;;;2.35;0.32;;;;;;;;;;5091146;28;20198;-60
2023/08/03 04:33:32;;;;;;;0.82;0.22;;;;;;;;;;5092021;28;20214;-60
2023/08/03 04:36:00;;;;;;;0.68;0.60;;;;;;;;;;5089680;28;20217;-61
2023/08/03 04:38:27;;;;;;;1.02;0.50;;;;;;;;;;5072066;28;20253;-61
2023/08/03 04:40:54;;;;;;;1.98;0.57;;;;;;;;;;5082681;28;20226;-60
2023/08/03 04:43:21;;;;;;;0.65;0.38;;;;;;;;;;5087456;28;20226;-60
2023/08/03 04:45:48;;;;;;;1.60;0.40;;;;;;;;;;5091529;28;20202;-59
2023/08/03 04:48:16;;;;;;;2.90;0.30;;;;;;;;;;5091096;28;20218;-59
2023/08/03 04:50:43;;;;;;;2.08;0.50;;;;;;;;;;5086690;28;20191;-60
2023/08/03 04:53:10;;;;;;;1.27;0.40;;;;;;;;;;5090433;28;20561;-59
2023/08/03 04:55:37;;;;;;;1.10;0.30;;;;;;;;;;5091383;28;20206;-59
2023/08/03 04:58:07;;;;;;;1.95;0.47;;;;;;;;;;5090713;28;20207;-62
2023/08/03 05:00:34;;;;;;;0.63;0.30;;;;;;;;;;5072278;28;20247;-60
2023/08/03 05:03:01;;;;;;;1.20;0.63;;;;;;;;;;5084412;28;20221;-59
2023/08/03 05:05:31;;;;;;;0.38;0.38;;;;;;;;;;5090991;28;20221;-59
2023/08/03 05:07:58;;;;;;;1.23;0.60;;;;;;;;;;5088498;28;20556;-59
2023/08/03 05:10:25;;;;;;;0.38;0.30;;;;;;;;;;5071174;28;20203;-60
2023/08/03 05:12:52;;;;;;;1.52;0.57;;;;;;;;;;5076402;28;20615;-59
2023/08/03 05:15:19;;;;;;;0.90;0.60;;;;;;;;;;5091218;28;20652;-59
2023/08/03 05:17:49;;;;;;;0.57;0.40;;;;;;;;;;5091210;28;20225;-60
2023/08/03 05:20:16;;;;;;;0.60;0.45;;;;;;;;;;5091194;28;20295;-60
2023/08/03 05:22:44;;;;;;;1.73;0.30;;;;;;;;;;5089635;28;20215;-61
2023/08/03 05:25:12;;;;;;;1.58;0.60;;;;;;;;;;5091244;28;20206;-60
2023/08/03 05:27:39;;;;;;;3.58;0.63;;;;;;;;;;5089942;28;20231;-60
2023/08/03 05:30:07;;;;;;;2.67;0.50;;;;;;;;;;5091042;28;20260;-60
2023/08/03 05:32:34;;;;;;;2.78;0.60;;;;;;;;;;5090762;28;20262;-60
2023/08/03 05:35:02;;;;;;;1.20;0.40;;;;;;;;;;5090123;28;20217;-60
2023/08/03 05:37:29;;;;;;;0.90;0.30;;;;;;;;;;5088144;28;20609;-61
2023/08/03 05:39:57;;;;;;;2.30;0.52;;;;;;;;;;5087113;28;20237;-60
2023/08/03 05:42:25;;;;;;;2.63;0.50;;;;;;;;;;5090587;28;20209;-60
2023/08/03 05:44:54;;;;;;;0.60;0.57;;;;;;;;;;5088547;28;20300;-60
2023/08/03 05:47:21;;;;;;;1.77;0.40;;;;;;;;;;5090405;28;20234;-60
2023/08/03 05:49:48;;;;;;;1.58;0.40;;;;;;;;;;5089596;28;20232;-61
2023/08/03 05:52:16;;;;;;;1.88;0.40;;;;;;;;;;5089844;28;20221;-60
2023/08/03 05:54:43;;;;;;;0.40;0.40;;;;;;;;;;5089495;28;20218;-60
2023/08/03 05:57:13;;;;;;;1.35;0.30;;;;;;;;;;5090048;28;20202;-61
2023/08/03 05:59:41;;;;;;;1.58;0.50;;;;;;;;;;5090352;28;20250;-61
2023/08/03 06:02:18;;;;;;;2.13;0.40;;;;;;;;;;5089309;28;20213;-60
2023/08/03 06:04:45;;;;;;;2.60;0.50;;;;;;;;;;5090035;28;20197;-60
2023/08/03 06:07:13;;;;;;;1.95;0.68;;;;;;;;;;5090268;28;20202;-61
2023/08/03 06:09:40;;;;;;;1.95;0.40;;;;;;;;;;5083292;28;20210;-60
2023/08/03 06:12:12;;;;;;;1.25;0.40;;;;;;;;;;5069798;28;20211;-60
2023/08/03 06:14:41;;;;;;;0.50;0.50;;;;;;;;;;5069614;28;20207;-60
2023/08/03 06:17:10;;;;;;;0.50;0.50;;;;;;;;;;5088864;28;20218;-60
2023/08/03 06:19:37;;;;;;;1.27;0.63;;;;;;;;;;5089253;28;20222;-60
2023/08/03 06:22:05;;;;;;;0.50;0.40;;;;;;;;;;5089356;28;20206;-60
2023/08/03 06:24:32;;;;;;;1.15;0.40;;;;;;;;;;5089757;28;20206;-61
2023/08/03 06:26:59;;;;;;;4.50;0.93;;;;;;;;;;5088723;28;20582;-60
2023/08/03 06:29:26;;;;;;;1.50;0.60;;;;;;;;;;5089555;28;20210;-61
2023/08/03 06:31:55;;;;;;;2.38;0.80;;;;;;;;;;5088751;28;20238;-61
2023/08/03 06:34:22;;;;;;;1.67;0.55;;;;;;;;;;5089721;28;20229;-60
2023/08/03 06:36:49;;;;;;;2.42;0.52;;;;;;;;;;5088797;28;20563;-61
2023/08/03 06:39:16;;;;;;;1.55;0.60;;;;;;;;;;5089662;28;20218;-60
2023/08/03 06:41:43;;;;;;;1.98;0.73;;;;;;;;;;5088914;28;20238;-61
2023/08/03 06:44:10;;;;;;;1.20;0.40;;;;;;;;;;5069206;28;20237;-60
2023/08/03 06:46:38;;;;;;;0.35;0.30;;;;;;;;;;5084768;28;20202;-60
2023/08/03 06:49:06;;;;;;;1.55;0.50;;;;;;;;;;5089285;28;20206;-61
2023/08/03 06:51:33;;;;;;;1.08;0.50;;;;;;;;;;5089216;28;20198;-60
2023/08/03 06:54:02;;;;;;;0.70;0.60;;;;;;;;;;5088842;28;20217;-60
2023/08/03 06:56:31;;;;;;;0.85;0.50;;;;;;;;;;5088999;28;20251;-60
2023/08/03 06:58:58;;;;;;;1.90;0.70;;;;;;;;;;5089365;28;20218;-60
2023/08/03 07:01:25;;;;;;;1.67;0.52;;;;;;;;;;5081679;28;20254;-60
2023/08/03 07:03:52;;;;;;;1.77;0.85;;;;;;;;;;5078264;28;20202;-60
2023/08/03 07:06:21;;;;;;;1.65;0.43;;;;;;;;;;5086210;28;20669;-61
2023/08/03 07:08:48;;;;;;;0.68;0.50;;;;;;;;;;5089181;28;20202;-61
2023/08/03 07:11:15;;;;;;;1.52;0.50;;;;;;;;;;5089172;28;20373;-61
2023/08/03 07:13:42;;;;;;;2.28;0.43;;;;;;;;;;5088110;28;20216;-60
2023/08/03 07:16:09;;;;;;;1.88;0.70;;;;;;;;;;5089283;28;20217;-61
2023/08/03 07:18:37;;;;;;;3.00;0.60;;;;;;;;;;5087105;28;20206;-61
2023/08/03 07:21:04;;;;;;;3.45;0.43;;;;;;;;;;5068816;28;20284;-61
2023/08/03 07:23:33;;;;;;;0.47;0.47;;;;;;;;;;5069117;28;20207;-61
2023/08/03 07:26:00;;;;;;;0.40;0.40;;;;;;;;;;5087536;28;20214;-61
2023/08/03 07:28:27;;;;;;;2.20;0.50;;;;;;;;;;5088966;28;20206;-61
2023/08/03 07:30:54;;;;;;;0.82;0.68;;;;;;;;;;5088726;28;20563;-61
2023/08/03 07:33:21;;;;;;;1.75;0.40;;;;;;;;;;5088837;28;20218;-60
2023/08/03 07:35:48;;;;;;;3.28;0.50;;;;;;;;;;5091463;28;20206;-60
2023/08/03 07:38:15;;;;;;;1.75;0.55;;;;;;;;;;5092951;28;20209;-60
2023/08/03 07:40:43;;;;;;;1.50;0.40;;;;;;;;;;5092833;28;20253;-61
2023/08/03 07:43:10;;;;;;;1.63;0.50;;;;;;;;;;5092676;28;20621;-60
2023/08/03 07:45:39;;;;;;;0.52;0.50;;;;;;;;;;5072307;28;20221;-60
2023/08/03 07:48:06;;;;;;;2.58;0.60;;;;;;;;;;5072747;28;20227;-60
2023/08/03 07:50:33;;;;;;;1.30;0.60;;;;;;;;;;5088755;28;20397;-60
2023/08/03 07:53:00;;;;;;;2.50;0.50;;;;;;;;;;5092197;28;20214;-60
2023/08/03 07:55:27;;;;;;;1.45;0.50;;;;;;;;;;5091608;28;20214;-60
2023/08/03 07:57:56;;;;;;;2.83;0.50;;;;;;;;;;5092354;28;20220;-61
2023/08/03 08:00:23;;;;;;;4.45;0.70;;;;;;;;;;5091107;28;20219;-64
2023/08/03 08:02:50;;;;;;;0.73;0.45;;;;;;;;;;5092286;28;20217;-66
2023/08/03 08:05:17;;;;;;;2.72;0.88;;;;;;;;;;5091199;28;20213;-60
2023/08/03 08:07:44;;;;;;;1.20;0.60;;;;;;;;;;5092396;28;20206;-60
2023/08/03 08:10:12;;;;;;;1.85;0.60;;;;;;;;;;5092217;28;20210;-60
2023/08/03 08:12:39;;;;;;;1.75;0.70;;;;;;;;;;5092006;28;20267;-60
2023/08/03 08:15:07;;;;;;;2.22;0.52;;;;;;;;;;5092147;28;20214;-60
2023/08/03 08:17:34;;;;;;;0.38;0.38;;;;;;;;;;5075146;28;20211;-60
2023/08/03 08:20:02;;;;;;;1.08;0.73;;;;;;;;;;5079709;28;20710;-64
2023/08/03 08:22:29;;;;;;;0.82;0.40;;;;;;;;;;5084395;28;20671;-59
2023/08/03 08:24:56;;;;;;;2.08;0.70;;;;;;;;;;5072988;28;20211;-59
2023/08/03 08:27:23;;;;;;;1.30;0.50;;;;;;;;;;5076574;28;20210;-60
2023/08/03 08:29:50;;;;;;;2.33;0.52;;;;;;;;;;5082138;28;20214;-60
2023/08/03 08:32:19;;;;;;;1.70;0.60;;;;;;;;;;5076864;28;20241;-59
2023/08/03 08:34:46;;;;;;;1.27;0.40;;;;;;;;;;5073514;28;20203;-60
2023/08/03 08:37:13;;;;;;;0.90;0.40;;;;;;;;;;5076140;28;20202;-59
2023/08/03 08:39:40;;;;;;;2.50;0.60;;;;;;;;;;5088913;28;20701;-59
2023/08/03 08:42:13;;;;;;;1.80;0.80;;;;;;;;;;5089656;28;20234;-59
2023/08/03 08:44:41;;;;;;;2.10;0.50;;;;;;;;;;5074097;28;20230;-59
2023/08/03 08:47:08;;;;;;;0.98;0.40;;;;;;;;;;5069142;28;20253;-59
2023/08/03 08:49:36;;;;;;;1.40;0.40;;;;;;;;;;5075165;28;20635;-59
2023/08/03 08:52:04;;;;;;;1.23;0.43;;;;;;;;;;5070163;28;20248;-59
2023/08/03 08:54:32;;;;;;;1.50;0.38;;;;;;;;;;5075670;28;20685;-59
2023/08/03 08:56:59;;;;;;;0.47;0.43;;;;;;;;;;5088738;28;20267;-59
2023/08/03 08:59:26;;;;;;;2.72;0.70;;;;;;;;;;5069705;28;20211;-59
2023/08/03 09:01:54;;;;;;;0.80;0.50;;;;;;;;;;5067381;28;20710;-59
2023/08/03 09:04:28;;;;;;;0.85;0.32;;;;;;;;;;5069860;28;20695;-59
2023/08/03 09:06:57;;;;;;;0.85;0.75;;;;;;;;;;5069615;28;20239;-59
2023/08/03 09:09:28;;;;;;;0.50;0.40;;;;;;;;;;5078413;28;20221;-60
2023/08/03 09:11:56;;;;;;;1.70;0.50;;;;;;;;;;5088967;28;20552;-59
2023/08/03 09:14:23;;;;;;;0.90;0.40;;;;;;;;;;5088514;28;20202;-59
2023/08/03 09:16:50;;;;;;;1.25;0.45;;;;;;;;;;5086144;28;20210;-60
2023/08/03 09:19:32;;;;;;;1.00;0.60;;;;;;;;;;5077936;28;20210;-60
2023/08/03 09:22:00;;;;;;;2.92;0.65;;;;;;;;;;5068958;28;20230;-60
2023/08/03 09:24:27;;;;;;;0.50;0.50;;;;;;;;;;5080913;28;20213;-60
2023/08/03 09:26:54;;;;;;;1.60;0.50;;;;;;;;;;5089944;28;20698;-59
2023/08/03 09:29:21;;;;;;;1.45;0.50;;;;;;;;;;5089611;28;20203;-59
2023/08/03 09:31:48;;;;;;;2.22;0.50;;;;;;;;;;5087384;28;20230;-60
2023/08/03 09:34:15;;;;;;;1.27;0.50;;;;;;;;;;5081704;28;20214;-60
2023/08/03 09:36:48;;;;;;;0.60;0.35;;;;;;;;;;5072619;28;20215;-61
2023/08/03 09:39:16;;;;;;;0.85;0.35;;;;;;;;;;5079164;28;20313;-60
2023/08/03 09:41:44;;;;;;;1.48;0.50;;;;;;;;;;5087619;28;20716;-61
2023/08/03 09:44:13;;;;;;;4.40;0.35;;;;;;;;;;5088081;28;20609;-60
2023/08/03 09:46:41;;;;;;;0.63;0.40;;;;;;;;;;5088837;28;20393;-60
2023/08/03 09:49:08;;;;;;;1.35;0.30;;;;;;;;;;5078694;28;20207;-60
2023/08/03 09:51:37;;;;;;;0.80;0.68;;;;;;;;;;5073494;28;20810;-61
2023/08/03 09:54:07;;;;;;;1.55;0.45;;;;;;;;;;5071051;28;20202;-60
2023/08/03 09:56:37;;;;;;;1.20;0.50;;;;;;;;;;5068702;28;20210;-60
2023/08/03 09:59:07;;;;;;;1.55;0.30;;;;;;;;;;5079243;28;20237;-60
2023/08/03 10:01:35;;;;;;;1.00;0.30;;;;;;;;;;5081157;28;20257;-60
2023/08/03 10:04:05;;;;;;;0.30;0.30;;;;;;;;;;5068288;28;20199;-60
2023/08/03 10:06:34;;;;;;;2.28;0.40;;;;;;;;;;5080791;28;20220;-60
2023/08/03 10:09:03;;;;;;;0.73;0.30;;;;;;;;;;5080563;28;20215;-60
2023/08/03 10:11:32;;;;;;;3.60;0.32;;;;;;;;;;5082289;28;20210;-60
2023/08/03 10:14:03;;;;;;;0.30;0.30;;;;;;;;;;5084628;28;20210;-61
2023/08/03 10:16:30;;;;;;;0.47;0.35;;;;;;;;;;5068463;28;20219;-61
2023/08/03 10:18:57;;;;;;;0.30;0.30;;;;;;;;;;5079835;28;20207;-61
2023/08/03 10:21:24;;;;;;;1.92;0.30;;;;;;;;;;5073692;28;20279;-60
2023/08/03 10:24:06;;;;;;;0.30;0.30;;;;;;;;;;5083081;28;20203;-61
2023/08/03 10:26:33;;;;;;;0.52;0.38;;;;;;;;;;5073415;28;20823;-61
2023/08/03 10:29:02;;;;;;;2.35;0.70;;;;;;;;;;5082218;28;20214;-61
2023/08/03 10:31:29;;;;;;;1.33;0.40;;;;;;;;;;5067297;28;20235;-61
2023/08/03 10:34:09;;;;;;;2.50;0.22;;;;;;;;;;5074206;28;20203;-61
2023/08/03 10:36:38;;;;;;;0.80;0.20;;;;;;;;;;5067702;28;20217;-61
2023/08/03 10:39:07;;;;;;;1.55;0.30;;;;;;;;;;5067191;28;20253;-61
2023/08/03 10:41:37;;;;;;;0.63;0.30;;;;;;;;;;5067400;28;20300;-60
2023/08/03 10:44:22;;;;;;;0.40;0.40;;;;;;;;;;5072023;28;20231;-61
2023/08/03 10:46:52;;;;;;;0.85;0.40;;;;;;;;;;5082644;28;20595;-60
2023/08/03 10:49:34;;;;;;;1.00;0.50;;;;;;;;;;5087631;28;20203;-61
2023/08/03 10:52:16;;;;;;;0.32;0.30;;;;;;;;;;5074050;28;20302;-64
2023/08/03 10:54:43;;;;;;;3.63;0.20;;;;;;;;;;5086504;28;20214;-63
2023/08/03 10:57:11;;;;;;;0.57;0.30;;;;;;;;;;5086995;28;20217;-62
2023/08/03 10:59:38;;;;;;;0.30;0.30;;;;;;;;;;5078773;28;20199;-60
2023/08/03 11:02:14;;;;;;;2.25;0.30;;;;;;;;;;5069831;28;20242;-63
2023/08/03 11:04:42;;;;;;;1.48;0.50;;;;;;;;;;5085283;28;20210;-63
2023/08/03 11:07:10;;;;;;;1.27;0.20;;;;;;;;;;5082425;28;20224;-61
2023/08/03 11:09:37;;;;;;;0.20;0.20;;;;;;;;;;5069976;28;20203;-62
2023/08/03 11:12:06;;;;;;;0.10;0.10;;;;;;;;;;5074071;28;20229;-61
2023/08/03 11:14:33;;;;;;;0.95;0.30;;;;;;;;;;5081551;28;20203;-61
2023/08/03 11:17:00;;;;;;;1.98;0.30;;;;;;;;;;5076324;28;20214;-62
2023/08/03 11:19:32;;;;;;;1.65;0.43;;;;;;;;;;5071232;28;20570;-62
2023/08/03 11:22:00;;;;;;;1.60;0.40;;;;;;;;;;5066630;28;20705;-61
2023/08/03 11:24:29;;;;;;;2.65;0.30;;;;;;;;;;5067059;28;20199;-61
2023/08/03 11:26:57;;;;;;;0.20;0.20;;;;;;;;;;5068736;28;20207;-61
2023/08/03 11:29:24;;;;;;;0.30;0.30;;;;;;;;;;5073404;28;20657;-61
2023/08/03 11:31:51;;;;;;;0.20;0.20;;;;;;;;;;5069360;28;20242;-62
2023/08/03 11:34:18;;;;;;;0.60;0.20;;;;;;;;;;5086516;28;20212;-62
2023/08/03 11:36:49;;;;;;;0.20;0.20;;;;;;;;;;5081505;28;20211;-62
2023/08/03 11:39:17;;;;;;;0.03;0.03;;;;;;;;;;5067672;28;20217;-61
2023/08/03 11:41:45;;;;;;;0.20;0.20;;;;;;;;;;5075874;28;20231;-62
2023/08/03 11:44:12;;;;;;;0.52;0.10;;;;;;;;;;5082720;28;20273;-62
2023/08/03 11:46:39;;;;;;;0.13;0.13;;;;;;;;;;5067657;28;20209;-61
2023/08/03 11:49:07;;;;;;;0.20;0.20;;;;;;;;;;5067187;28;20203;-61
2023/08/03 11:51:35;;;;;;;0.10;0.10;;;;;;;;;;5084515;28;20236;-61
2023/08/03 11:54:06;;;;;;;0.13;0.10;;;;;;;;;;5085342;28;20264;-61
2023/08/03 11:56:34;;;;;;;0.10;0.10;;;;;;;;;;5067168;28;20211;-62
2023/08/03 11:59:01;;;;;;;0.10;0.10;;;;;;;;;;5081716;28;20240;-61
2023/08/03 12:01:29;;;;;;;0.13;0.13;;;;;;;;;;5080785;28;20252;-61
2023/08/03 12:04:06;;;;;;;0.50;0.17;;;;;;;;;;5075748;28;20207;-62
2023/08/03 12:06:42;;;;;;;0.00;0.00;;;;;;;;;;5078245;28;20205;-62
2023/08/03 12:09:10;;;;;;;0.10;0.10;;;;;;;;;;5078166;28;20206;-61
2023/08/03 12:11:38;;;;;;;0.10;0.10;;;;;;;;;;5080316;28;20210;-62
2023/08/03 12:14:05;;;;;;;0.10;0.10;;;;;;;;;;5084819;28;20230;-62
2023/08/03 12:16:32;;;;;;;0.17;0.17;;;;;;;;;;5079740;28;20345;-66
2023/08/03 12:18:59;;;;;;;0.10;0.10;;;;;;;;;;5085943;28;20209;-67
2023/08/03 12:21:26;;;;;;;0.10;0.10;;;;;;;;;;5087904;28;20217;-66
2023/08/03 12:23:53;;;;;;;0.10;0.10;;;;;;;;;;5085029;28;20231;-66
2023/08/03 12:26:22;;;;;;;0.10;0.10;;;;;;;;;;5080066;28;20302;-65
2023/08/03 12:28:49;;;;;;;0.10;0.10;;;;;;;;;;5086705;28;20202;-66
2023/08/03 12:31:16;;;;;;;0.32;0.30;;;;;;;;;;5087465;28;20238;-67
2023/08/03 12:33:43;;;;;;;0.10;0.10;;;;;;;;;;5091050;28;20219;-61
2023/08/03 12:36:10;;;;;;;0.17;0.10;;;;;;;;;;5074155;28;20215;-61
2023/08/03 12:38:37;;;;;;;0.35;0.20;;;;;;;;;;5078800;28;20210;-62
2023/08/03 12:41:05;;;;;;;0.10;0.10;;;;;;;;;;5073999;28;20222;-61
2023/08/03 12:43:33;;;;;;;0.20;0.20;;;;;;;;;;5066748;28;20615;-62
2023/08/03 12:46:00;;;;;;;0.30;0.30;;;;;;;;;;5085192;28;20214;-61
2023/08/03 12:48:28;;;;;;;0.20;0.20;;;;;;;;;;5090791;28;20209;-61
2023/08/03 12:50:55;;;;;;;0.25;0.25;;;;;;;;;;5078106;28;20199;-61
2023/08/03 12:53:22;;;;;;;1.10;0.30;;;;;;;;;;5071792;28;20276;-61
2023/08/03 12:55:49;;;;;;;0.20;0.20;;;;;;;;;;5077492;28;20210;-61
2023/08/03 12:58:16;;;;;;;0.20;0.20;;;;;;;;;;5067454;28;20215;-61
2023/08/03 13:00:44;;;;;;;0.20;0.20;;;;;;;;;;5074771;28;20229;-61
2023/08/03 13:03:11;;;;;;;0.63;0.30;;;;;;;;;;5070584;28;20238;-61
2023/08/03 13:05:38;;;;;;;1.25;0.20;;;;;;;;;;5075322;28;20590;-60
2023/08/03 13:08:05;;;;;;;0.20;0.20;;;;;;;;;;5090683;28;20202;-61
2023/08/03 13:10:33;;;;;;;0.20;0.20;;;;;;;;;;5079844;28;20712;-60
2023/08/03 13:13:00;;;;;;;0.20;0.20;;;;;;;;;;5075344;28;20207;-66
2023/08/03 13:15:27;;;;;;;0.13;0.13;;;;;;;;;;5075507;28;20206;-64
2023/08/03 13:17:54;;;;;;;0.20;0.20;;;;;;;;;;5087516;28;20206;-62
2023/08/03 13:20:21;;;;;;;0.20;0.17;;;;;;;;;;5085750;28;20589;-62
2023/08/03 13:22:48;;;;;;;0.20;0.20;;;;;;;;;;5089396;28;20719;-62
2023/08/03 13:25:15;;;;;;;0.10;0.10;;;;;;;;;;5087895;28;20198;-62
2023/08/03 13:27:43;;;;;;;0.10;0.10;;;;;;;;;;5086112;28;20213;-62
2023/08/03 13:30:10;;;;;;;0.38;0.20;;;;;;;;;;5089602;28;20205;-61
2023/08/03 13:32:41;;;;;;;0.10;0.10;;;;;;;;;;5087859;28;20232;-63
2023/08/03 13:35:10;;;;;;;0.20;0.20;;;;;;;;;;5070105;28;20199;-62
2023/08/03 13:37:37;;;;;;;0.20;0.20;;;;;;;;;;5069178;28;20480;-61
2023/08/03 13:40:04;;;;;;;0.20;0.20;;;;;;;;;;5081522;28;20219;-62
2023/08/03 13:42:31;;;;;;;0.20;0.20;;;;;;;;;;5072104;28;20313;-63
2023/08/03 13:44:58;;;;;;;0.10;0.10;;;;;;;;;;5086900;28;20210;-61
2023/08/03 13:47:25;;;;;;;0.17;0.17;;;;;;;;;;5081537;28;20203;-62
2023/08/03 13:49:54;;;;;;;0.30;0.10;;;;;;;;;;5077956;28;20207;-62
2023/08/03 13:52:22;;;;;;;0.10;0.10;;;;;;;;;;5089273;28;20198;-62
2023/08/03 13:54:50;;;;;;;0.15;0.15;;;;;;;;;;5089044;28;20676;-63
2023/08/03 13:57:18;;;;;;;0.20;0.20;;;;;;;;;;5072290;28;20210;-64
2023/08/03 13:59:45;;;;;;;0.35;0.13;;;;;;;;;;5086843;28;20304;-64
2023/08/03 14:02:12;;;;;;;0.20;0.20;;;;;;;;;;5076991;28;20238;-62
2023/08/03 14:04:41;;;;;;;0.20;0.20;;;;;;;;;;5087882;28;20290;-63
2023/08/03 14:07:11;;;;;;;0.20;0.20;;;;;;;;;;5083588;28;20207;-63
2023/08/03 14:09:39;;;;;;;0.43;0.20;;;;;;;;;;5078359;28;20199;-62
2023/08/03 14:12:07;;;;;;;0.20;0.20;;;;;;;;;;5080326;28;20212;-63
2023/08/03 14:14:34;;;;;;;0.40;0.22;;;;;;;;;;5079783;28;20202;-63
2023/08/03 14:17:01;;;;;;;0.25;0.25;;;;;;;;;;5079638;28;20199;-63
2023/08/03 14:19:28;;;;;;;1.85;0.20;;;;;;;;;;5076499;28;20295;-63
2023/08/03 14:21:55;;;;;;;0.30;0.30;;;;;;;;;;5086920;28;20217;-63
2023/08/03 14:24:25;;;;;;;0.52;0.30;;;;;;;;;;5088277;28;20212;-63
2023/08/03 14:26:55;;;;;;;0.20;0.20;;;;;;;;;;5079302;28;20207;-63
2023/08/03 14:29:22;;;;;;;0.40;0.30;;;;;;;;;;5081371;28;20563;-62
2023/08/03 14:31:49;;;;;;;0.20;0.20;;;;;;;;;;5080797;28;20242;-66
2023/08/03 14:34:16;;;;;;;0.75;0.75;;;;;;;;;;5088557;28;20209;-64
2023/08/03 14:36:44;;;;;;;0.40;0.40;;;;;;;;;;5078923;28;20214;-63
2023/08/03 14:39:11;;;;;;;1.10;1.00;;;;;;;;;;5082310;28;20202;-63
2023/08/03 14:41:38;;;;;;;0.47;0.47;;;;;;;;;;5074268;28;20214;-62
2023/08/03 14:44:09;;;;;;;0.20;0.20;;;;;;;;;;5088628;28;20261;-61
2023/08/03 14:46:36;;;;;;;0.17;0.17;;;;;;;;;;5079694;28;20414;-61